Radford, Virginia
Current Conditions -  °F | °C
As of 1:15 PM on Saturday 25 Oct 2014 (Local Time) from KPSK Reporting Station
Clear Clear  
Wind Chill: 19°   Ceiling: Unl
Heat Index: 19°   Visibility: 10mi
Dew Point:   Wind: 9mph
Humidity: 38%   Direction: 280°W
Pressure: 30.02"   Gusts: NA
Location:  37.12°N, 80.59°W
Report Text: KPSK 251715Z AUTO 28008KT 10SM CLR 19/04 A3002 RMK AO2 T01900042
Loading
Personal Weather Stations






























Interactive Weather Map
Tropical Storm Tracking
New forecast layout! Learn more

10-Day Weather Forecast

Advertisements
Track Severe Weather on mobile